createdAt,value
2018-05-17T00:02:23.726Z,10.29
2018-05-17T00:04:52.426Z,10.32
2018-05-17T00:07:20.938Z,10.31
2018-05-17T00:09:49.469Z,10.33
2018-05-17T00:12:18.090Z,10.30
2018-05-17T00:14:46.639Z,10.30
2018-05-17T00:17:15.169Z,10.36
2018-05-17T00:19:43.728Z,10.42
2018-05-17T00:22:12.263Z,10.52
2018-05-17T00:24:40.783Z,10.56
2018-05-17T00:27:09.425Z,10.57
2018-05-17T00:29:37.961Z,10.50
2018-05-17T00:32:06.513Z,10.49
2018-05-17T00:34:35.993Z,10.45
2018-05-17T00:37:04.697Z,10.49
2018-05-17T00:39:33.203Z,10.37
2018-05-17T00:42:01.729Z,10.37
2018-05-17T00:44:30.257Z,10.34
2018-05-17T00:46:58.792Z,10.35
2018-05-17T00:49:27.325Z,10.31
2018-05-17T00:51:56.018Z,10.29
2018-05-17T00:54:24.528Z,10.28
2018-05-17T00:56:53.074Z,10.23
2018-05-17T00:59:23.811Z,10.22
2018-05-17T01:01:52.404Z,10.28
2018-05-17T01:04:20.849Z,10.25
2018-05-17T01:06:49.400Z,10.27
2018-05-17T01:09:17.914Z,10.26
2018-05-17T01:11:47.380Z,10.25
2018-05-17T01:14:15.905Z,10.23
2018-05-17T01:16:44.493Z,10.24
2018-05-17T01:19:13.000Z,10.22
2018-05-17T01:21:41.537Z,10.20
2018-05-17T01:24:10.100Z,10.15
2018-05-17T01:26:38.625Z,10.11
2018-05-17T01:29:07.167Z,10.15
2018-05-17T01:31:36.984Z,10.10
2018-05-17T01:34:05.492Z,10.12
2018-05-17T01:36:34.021Z,10.13
2018-05-17T01:39:02.600Z,10.18
2018-05-17T01:41:31.146Z,10.13
2018-05-17T01:43:59.674Z,10.12
2018-05-17T01:46:28.214Z,10.14
2018-05-17T01:48:58.429Z,10.13
2018-05-17T01:51:26.947Z,10.12
2018-05-17T01:53:56.442Z,10.13
2018-05-17T01:56:25.225Z,10.13
2018-05-17T01:58:54.933Z,10.14
2018-05-17T02:01:23.465Z,10.13
2018-05-17T02:03:52.190Z,10.16
2018-05-17T02:06:20.989Z,10.14
2018-05-17T02:08:49.522Z,10.14
2018-05-17T02:11:18.028Z,10.16
2018-05-17T02:13:46.568Z,10.17
2018-05-17T02:16:15.105Z,10.16
2018-05-17T02:18:43.620Z,10.13
2018-05-17T02:21:12.173Z,10.10
2018-05-17T02:23:40.692Z,10.11
2018-05-17T02:26:09.225Z,10.10
2018-05-17T02:28:37.777Z,10.11
2018-05-17T02:31:06.294Z,10.08
2018-05-17T02:33:34.821Z,10.07
2018-05-17T02:36:03.497Z,10.07
2018-05-17T02:38:32.099Z,10.11
2018-05-17T02:41:00.635Z,10.10
2018-05-17T02:43:29.366Z,10.08
2018-05-17T02:45:57.905Z,10.07
2018-05-17T02:48:27.429Z,10.09
2018-05-17T02:50:55.945Z,10.12
2018-05-17T02:53:24.478Z,10.12
2018-05-17T02:55:53.002Z,10.12
2018-05-17T02:58:21.523Z,10.12
2018-05-17T03:00:50.367Z,10.15
2018-05-17T03:03:18.865Z,10.16
2018-05-17T03:05:47.393Z,10.15
2018-05-17T03:08:16.061Z,10.14
2018-05-17T03:10:44.578Z,10.12
2018-05-17T03:13:13.129Z,10.13
2018-05-17T03:15:41.773Z,10.14
2018-05-17T03:18:10.291Z,10.12
2018-05-17T03:20:38.852Z,10.11
2018-05-17T03:23:08.349Z,10.06
2018-05-17T03:25:36.882Z,10.06
2018-05-17T03:28:05.400Z,10.01
2018-05-17T03:30:34.426Z,10.00
2018-05-17T03:33:02.947Z,10.02
2018-05-17T03:35:32.439Z,10.01
2018-05-17T03:38:01.098Z,9.97
2018-05-17T03:40:29.624Z,9.94
2018-05-17T03:42:58.141Z,9.93
2018-05-17T03:45:26.984Z,9.98
2018-05-17T03:47:55.520Z,9.98
2018-05-17T03:50:24.052Z,9.95
2018-05-17T03:52:52.948Z,9.90
2018-05-17T03:55:21.477Z,9.86
2018-05-17T03:57:50.005Z,9.89
2018-05-17T04:00:18.748Z,9.91
2018-05-17T04:02:59.096Z,9.92
2018-05-17T04:05:39.453Z,9.94
2018-05-17T04:08:07.993Z,9.94
2018-05-17T04:10:36.705Z,9.90
2018-05-17T04:13:05.197Z,9.98
2018-05-17T04:15:33.727Z,9.95
2018-05-17T04:18:02.245Z,9.92
2018-05-17T04:20:30.780Z,9.89
2018-05-17T04:23:00.565Z,9.92
2018-05-17T04:25:29.080Z,9.88
2018-05-17T04:27:57.592Z,9.86
2018-05-17T04:30:26.343Z,9.88
2018-05-17T04:32:54.903Z,9.84
2018-05-17T04:35:24.001Z,9.91
2018-05-17T04:37:52.528Z,9.91
2018-05-17T04:40:21.604Z,9.95
2018-05-17T04:42:50.121Z,10.01
2018-05-17T04:45:18.640Z,9.97
2018-05-17T04:47:47.172Z,9.98
2018-05-17T04:50:15.692Z,9.99
2018-05-17T04:52:44.216Z,10.05
2018-05-17T04:55:12.741Z,10.15
2018-05-17T04:57:42.733Z,10.14
2018-05-17T05:00:11.313Z,10.26
2018-05-17T05:02:40.470Z,10.36
2018-05-17T05:05:08.953Z,10.46
2018-05-17T05:07:38.034Z,10.46
2018-05-17T05:10:07.552Z,10.53
2018-05-17T05:12:36.112Z,10.60
2018-05-17T05:15:04.655Z,10.50
2018-05-17T05:17:33.181Z,10.49
2018-05-17T05:20:01.730Z,10.51
2018-05-17T05:22:30.255Z,10.46
2018-05-17T05:24:59.567Z,10.46
2018-05-17T05:27:28.220Z,10.51
2018-05-17T05:29:57.165Z,10.53
2018-05-17T05:32:25.706Z,10.47
2018-05-17T05:34:54.653Z,10.50
2018-05-17T05:37:23.168Z,10.51
2018-05-17T05:39:51.695Z,10.51
2018-05-17T05:42:20.221Z,10.54
2018-05-17T05:44:48.745Z,10.45
2018-05-17T05:47:17.676Z,10.43
2018-05-17T05:49:46.244Z,10.52
2018-05-17T05:52:15.346Z,10.55
2018-05-17T05:54:43.891Z,10.60
2018-05-17T05:57:13.015Z,10.73
2018-05-17T05:59:41.524Z,10.75
2018-05-17T06:02:10.057Z,10.81
2018-05-17T06:04:38.592Z,10.90
2018-05-17T06:07:07.200Z,10.92
2018-05-17T06:09:35.715Z,10.99
2018-05-17T06:12:04.269Z,11.15
2018-05-17T06:14:32.801Z,11.31
2018-05-17T06:17:01.331Z,11.44
2018-05-17T06:19:35.815Z,11.36
2018-05-17T06:22:05.381Z,11.53
2018-05-17T06:24:35.852Z,11.66
2018-05-17T06:27:08.216Z,11.66
2018-05-17T06:29:39.839Z,11.67
2018-05-17T06:32:13.057Z,11.59
2018-05-17T06:34:44.927Z,11.54
2018-05-17T06:37:18.335Z,11.65
2018-05-17T06:39:50.467Z,11.75
2018-05-17T06:42:19.117Z,11.99
2018-05-17T06:44:48.589Z,12.13
2018-05-17T06:47:17.126Z,12.19
2018-05-17T06:49:45.661Z,12.35
2018-05-17T06:52:14.195Z,12.54
2018-05-17T06:54:42.725Z,12.80
2018-05-17T06:57:11.259Z,13.01
2018-05-17T06:59:39.778Z,13.16
2018-05-17T07:02:08.319Z,13.48
2018-05-17T07:04:36.838Z,13.81
2018-05-17T07:07:05.360Z,13.80
2018-05-17T07:09:33.883Z,13.77
2018-05-17T07:12:02.425Z,13.93
2018-05-17T07:14:30.965Z,14.04
2018-05-17T07:17:00.114Z,14.28
2018-05-17T07:19:28.645Z,14.42
2018-05-17T07:21:57.800Z,14.62
2018-05-17T07:24:26.333Z,14.91
2018-05-17T07:26:55.129Z,14.29
2018-05-17T07:29:23.657Z,14.16
2018-05-17T07:31:52.453Z,14.18
2018-05-17T07:34:20.980Z,14.31
2018-05-17T07:36:50.125Z,14.58
2018-05-17T07:39:18.737Z,14.70
2018-05-17T07:41:48.165Z,14.56
2018-05-17T07:44:16.693Z,14.76
2018-05-17T07:46:45.261Z,15.17
2018-05-17T07:49:13.771Z,15.16
2018-05-17T07:51:43.060Z,14.97
2018-05-17T07:54:11.601Z,14.88
2018-05-17T07:56:40.577Z,15.09
2018-05-17T07:59:09.103Z,14.92
2018-05-17T08:01:38.213Z,14.91
2018-05-17T08:04:07.697Z,15.00
2018-05-17T08:06:36.228Z,15.07
2018-05-17T08:09:06.061Z,14.86
2018-05-17T08:11:34.552Z,14.95
2018-05-17T08:14:03.574Z,15.24
2018-05-17T08:16:32.140Z,15.41
2018-05-17T08:19:01.166Z,15.69
2018-05-17T08:21:29.734Z,15.66
2018-05-17T08:24:01.102Z,15.88
2018-05-17T08:26:29.603Z,15.72
2018-05-17T08:28:58.776Z,16.51
2018-05-17T08:31:27.324Z,16.31
2018-05-17T08:33:56.965Z,16.07
2018-05-17T08:36:25.538Z,15.86
2018-05-17T08:38:54.463Z,15.59
2018-05-17T08:41:23.017Z,15.40
2018-05-17T08:43:51.849Z,14.96
2018-05-17T08:46:20.385Z,14.71
2018-05-17T08:48:48.905Z,14.54
2018-05-17T08:51:17.438Z,14.54
2018-05-17T08:53:46.310Z,14.86
2018-05-17T08:56:14.822Z,15.17
2018-05-17T08:58:44.018Z,15.20
2018-05-17T09:01:12.553Z,15.58
2018-05-17T09:03:41.364Z,15.86
2018-05-17T09:06:09.964Z,15.59
2018-05-17T09:08:38.865Z,15.80
2018-05-17T09:11:07.398Z,15.82
2018-05-17T09:13:36.411Z,15.69
2018-05-17T09:16:04.948Z,15.38
2018-05-17T09:18:33.843Z,15.40
2018-05-17T09:21:02.378Z,15.55
2018-05-17T09:23:31.369Z,15.60
2018-05-17T09:25:59.904Z,15.68
2018-05-17T09:28:28.412Z,15.93
2018-05-17T09:30:56.953Z,15.87
2018-05-17T09:33:25.685Z,15.42
2018-05-17T09:35:55.172Z,15.47
2018-05-17T09:38:23.713Z,15.52
2018-05-17T09:40:52.275Z,15.58
2018-05-17T09:43:20.795Z,15.49
2018-05-17T09:45:49.340Z,15.64
2018-05-17T09:48:18.328Z,16.09
2018-05-17T09:50:46.852Z,16.11
2018-05-17T09:53:15.777Z,16.13
2018-05-17T09:55:44.297Z,16.18
2018-05-17T09:58:12.821Z,15.94
2018-05-17T10:00:49.886Z,15.89
2018-05-17T10:03:19.061Z,15.51
2018-05-17T10:05:47.600Z,15.14
2018-05-17T10:08:17.251Z,14.90
2018-05-17T10:10:45.787Z,14.93
2018-05-17T10:13:15.141Z,14.88
2018-05-17T10:15:43.676Z,14.64
2018-05-17T10:18:12.912Z,14.97
2018-05-17T10:20:41.452Z,15.27
2018-05-17T10:23:10.773Z,16.60
2018-05-17T10:25:39.238Z,16.85
2018-05-17T10:28:08.392Z,17.02
2018-05-17T10:30:36.925Z,17.11
2018-05-17T10:33:05.629Z,17.13
2018-05-17T10:35:34.156Z,17.56
2018-05-17T10:38:03.220Z,17.37
2018-05-17T10:40:39.037Z,16.89
2018-05-17T10:43:07.574Z,16.81
2018-05-17T10:45:36.562Z,16.72
2018-05-17T10:48:05.100Z,16.59
2018-05-17T10:50:33.611Z,16.62
2018-05-17T10:53:02.173Z,16.70
2018-05-17T10:55:31.195Z,17.07
2018-05-17T10:57:59.704Z,17.63
2018-05-17T11:00:28.926Z,17.77
2018-05-17T11:02:57.433Z,18.26
2018-05-17T11:05:26.448Z,18.76
2018-05-17T11:07:54.980Z,19.55
2018-05-17T11:10:24.183Z,19.57
2018-05-17T11:12:52.704Z,19.82
2018-05-17T11:15:21.432Z,20.31
2018-05-17T11:17:49.876Z,19.76
2018-05-17T11:20:19.314Z,19.32
2018-05-17T11:22:47.825Z,19.27
2018-05-17T11:25:17.536Z,18.97
2018-05-17T11:27:46.068Z,18.49
2018-05-17T11:30:15.340Z,19.60
2018-05-17T11:32:43.871Z,19.35
2018-05-17T11:35:13.135Z,19.49
2018-05-17T11:37:41.673Z,20.18
2018-05-17T11:40:10.778Z,21.01
2018-05-17T11:42:39.309Z,20.59
2018-05-17T11:45:08.741Z,19.73
2018-05-17T11:47:37.307Z,20.41
2018-05-17T11:50:05.947Z,19.96
2018-05-17T11:52:34.469Z,18.70
2018-05-17T11:55:03.789Z,17.69
2018-05-17T11:57:32.305Z,17.33
2018-05-17T12:00:01.598Z,16.72
2018-05-17T12:02:30.118Z,16.75
2018-05-17T12:04:59.001Z,16.39
2018-05-17T12:07:27.548Z,16.38
2018-05-17T12:09:56.324Z,16.05
2018-05-17T12:12:24.828Z,15.95
2018-05-17T12:14:54.133Z,15.83
2018-05-17T12:17:22.696Z,15.71
2018-05-17T12:19:51.229Z,15.61
2018-05-17T12:22:19.777Z,15.55
2018-05-17T12:24:48.314Z,15.63
2018-05-17T12:27:16.835Z,15.53
2018-05-17T12:29:45.709Z,15.39
2018-05-17T12:32:14.245Z,15.69
2018-05-17T12:34:43.661Z,16.00
2018-05-17T12:37:12.227Z,16.00
2018-05-17T12:39:41.408Z,16.29
2018-05-17T12:42:09.933Z,16.40
2018-05-17T12:44:40.033Z,16.86
2018-05-17T12:47:08.564Z,17.27
2018-05-17T12:49:37.103Z,17.50
2018-05-17T12:52:05.640Z,17.41
2018-05-17T12:54:34.160Z,17.54
2018-05-17T12:57:02.719Z,17.66
2018-05-17T12:59:31.884Z,17.46
2018-05-17T13:02:00.429Z,17.19
2018-05-17T13:04:29.743Z,17.27
2018-05-17T13:06:58.352Z,17.00
2018-05-17T13:09:27.433Z,16.65
2018-05-17T13:11:55.957Z,16.53
2018-05-17T13:14:25.072Z,16.37
2018-05-17T13:16:53.592Z,16.34
2018-05-17T13:19:22.270Z,16.44
2018-05-17T13:21:50.785Z,17.03
2018-05-17T13:24:19.908Z,17.46
2018-05-17T13:26:48.477Z,17.98
2018-05-17T13:29:17.667Z,17.51
2018-05-17T13:31:46.192Z,16.97
2018-05-17T13:34:14.724Z,16.45
2018-05-17T13:36:43.390Z,16.24
2018-05-17T13:39:11.888Z,15.93
2018-05-17T13:41:40.558Z,16.21
2018-05-17T13:44:09.111Z,16.16
2018-05-17T13:46:37.624Z,15.11
2018-05-17T13:49:06.977Z,14.30
2018-05-17T13:51:35.485Z,13.87
2018-05-17T13:54:06.785Z,13.35
2018-05-17T13:56:38.545Z,13.08
2018-05-17T13:59:12.063Z,12.78
2018-05-17T14:01:43.751Z,12.58
2018-05-17T14:04:15.915Z,12.37
2018-05-17T14:06:46.979Z,12.28
2018-05-17T14:09:18.663Z,12.18
2018-05-17T14:11:47.173Z,12.22
2018-05-17T14:14:15.708Z,12.21
2018-05-17T14:16:44.224Z,12.12
2018-05-17T14:19:13.644Z,12.20
2018-05-17T14:21:42.285Z,12.26
2018-05-17T14:24:11.127Z,12.40
2018-05-17T14:26:39.657Z,12.57
2018-05-17T14:29:08.230Z,12.63
2018-05-17T14:31:37.240Z,12.61
2018-05-17T14:34:05.733Z,12.42
2018-05-17T14:36:34.277Z,12.40
2018-05-17T14:39:02.793Z,12.41
2018-05-17T14:41:32.086Z,12.43
2018-05-17T14:44:00.596Z,12.46
2018-05-17T14:46:29.612Z,12.42
2018-05-17T14:48:58.140Z,12.32
2018-05-17T14:51:26.759Z,12.19
2018-05-17T14:53:57.559Z,12.30
2018-05-17T14:56:26.104Z,12.27
2018-05-17T14:58:55.056Z,12.25
2018-05-17T15:01:23.596Z,12.30
2018-05-17T15:03:52.905Z,12.24
2018-05-17T15:06:21.432Z,12.15
2018-05-17T15:08:49.984Z,12.17
2018-05-17T15:11:20.092Z,12.31
2018-05-17T15:13:48.588Z,12.41
2018-05-17T15:16:17.169Z,12.43
2018-05-17T15:18:45.703Z,12.55
2018-05-17T15:21:14.235Z,12.50
2018-05-17T15:23:43.200Z,12.42
2018-05-17T15:26:11.736Z,12.44
2018-05-17T15:28:40.308Z,12.43
2018-05-17T15:31:09.085Z,12.48
2018-05-17T15:33:37.584Z,12.50
2018-05-17T15:36:06.120Z,12.45
2018-05-17T15:38:34.666Z,12.39
2018-05-17T15:41:03.194Z,12.38
2018-05-17T15:43:32.029Z,12.43
2018-05-17T15:46:00.580Z,12.38
2018-05-17T15:48:29.133Z,12.38
2018-05-17T15:50:58.003Z,12.31
2018-05-17T15:53:26.551Z,12.35
2018-05-17T15:55:55.049Z,12.43
2018-05-17T15:58:23.589Z,12.58
2018-05-17T16:00:52.113Z,12.64
2018-05-17T16:03:20.660Z,12.65
2018-05-17T16:05:49.192Z,12.76
2018-05-17T16:08:18.551Z,12.81
2018-05-17T16:10:47.085Z,12.95
2018-05-17T16:13:16.212Z,13.04
2018-05-17T16:15:44.815Z,13.11
2018-05-17T16:18:13.286Z,13.11
2018-05-17T16:20:41.821Z,13.16
2018-05-17T16:23:10.349Z,13.22
2018-05-17T16:25:39.077Z,13.20
2018-05-17T16:28:07.608Z,13.15
2018-05-17T16:30:36.147Z,13.15
2018-05-17T16:33:05.115Z,13.22
2018-05-17T16:35:33.644Z,13.18
2018-05-17T16:38:02.598Z,13.43
2018-05-17T16:40:31.128Z,13.62
2018-05-17T16:42:59.688Z,13.65
2018-05-17T16:45:28.232Z,13.70
2018-05-17T16:47:56.787Z,13.77
2018-05-17T16:50:25.328Z,13.94
2018-05-17T16:52:53.937Z,14.04
2018-05-17T16:55:22.678Z,14.22
2018-05-17T16:57:51.276Z,14.35
2018-05-17T17:00:20.893Z,14.52
2018-05-17T17:02:49.420Z,14.52
2018-05-17T17:05:17.944Z,14.69
2018-05-17T17:07:46.500Z,14.63
2018-05-17T17:10:15.010Z,14.66
2018-05-17T17:12:43.718Z,14.49
2018-05-17T17:15:12.258Z,14.48
2018-05-17T17:17:42.174Z,14.53
2018-05-17T17:20:10.698Z,14.52
2018-05-17T17:22:39.253Z,14.38
2018-05-17T17:25:07.773Z,14.28
2018-05-17T17:27:36.321Z,14.37
2018-05-17T17:30:05.220Z,14.38
2018-05-17T17:32:33.756Z,14.43
2018-05-17T17:35:02.861Z,14.33
2018-05-17T17:37:31.393Z,14.25
2018-05-17T17:39:59.917Z,14.15
2018-05-17T17:42:28.462Z,14.13
2018-05-17T17:44:56.995Z,14.09
2018-05-17T17:47:25.525Z,13.97
2018-05-17T17:49:54.074Z,13.82
2018-05-17T17:52:23.304Z,13.71
2018-05-17T17:54:51.890Z,13.62
2018-05-17T17:57:20.442Z,13.53
2018-05-17T17:59:48.980Z,13.46
2018-05-17T18:02:17.545Z,13.42
2018-05-17T18:04:46.306Z,13.33
2018-05-17T18:07:14.837Z,13.32
2018-05-17T18:09:43.360Z,13.25
2018-05-17T18:12:12.014Z,13.18
2018-05-17T18:14:40.548Z,13.10
2018-05-17T18:17:09.826Z,13.04
2018-05-17T18:19:38.648Z,12.99
2018-05-17T18:22:07.197Z,12.87
2018-05-17T18:24:35.738Z,12.80
2018-05-17T18:27:04.441Z,12.80
2018-05-17T18:29:32.956Z,12.78
2018-05-17T18:32:01.493Z,12.75
2018-05-17T18:34:30.171Z,12.72
2018-05-17T18:36:58.680Z,12.71
2018-05-17T18:39:27.252Z,12.65
2018-05-17T18:41:55.990Z,12.63
2018-05-17T18:44:24.514Z,12.52
2018-05-17T18:46:53.056Z,12.47
2018-05-17T18:49:21.589Z,12.43
2018-05-17T18:51:50.117Z,12.41
2018-05-17T18:54:18.749Z,12.39
2018-05-17T18:56:47.270Z,12.35
2018-05-17T18:59:15.818Z,12.26
2018-05-17T19:01:44.515Z,12.23
2018-05-17T19:04:13.052Z,12.26
2018-05-17T19:06:41.584Z,12.21
2018-05-17T19:09:10.357Z,12.16
2018-05-17T19:11:38.888Z,12.12
2018-05-17T19:14:07.425Z,12.03
2018-05-17T19:16:36.096Z,11.96
2018-05-17T19:19:04.637Z,11.86
2018-05-17T19:21:33.172Z,11.83
2018-05-17T19:24:01.700Z,11.79
2018-05-17T19:26:30.492Z,11.79
2018-05-17T19:28:59.040Z,11.85
2018-05-17T19:31:27.637Z,11.84
2018-05-17T19:33:57.321Z,11.80
2018-05-17T19:36:25.801Z,11.83
2018-05-17T19:38:54.350Z,11.80
2018-05-17T19:41:22.877Z,11.75
2018-05-17T19:43:51.418Z,11.73
2018-05-17T19:46:19.949Z,11.71
2018-05-17T19:48:48.485Z,11.72
2018-05-17T19:51:17.027Z,11.81
2018-05-17T19:53:45.560Z,11.94
2018-05-17T19:56:14.097Z,12.02
2018-05-17T19:58:42.641Z,12.12
2018-05-17T20:01:11.208Z,12.15
2018-05-17T20:03:39.744Z,12.09
2018-05-17T20:06:08.692Z,12.08
2018-05-17T20:08:37.205Z,12.13
2018-05-17T20:11:05.762Z,12.20
2018-05-17T20:13:34.866Z,12.18
2018-05-17T20:16:03.361Z,12.16
2018-05-17T20:18:31.892Z,12.22
2018-05-17T20:21:00.548Z,12.21
2018-05-17T20:23:29.085Z,12.15
2018-05-17T20:25:58.562Z,12.18
2018-05-17T20:28:27.096Z,12.17
2018-05-17T20:30:55.744Z,12.12
2018-05-17T20:33:24.248Z,12.12
2018-05-17T20:35:52.784Z,12.10
2018-05-17T20:38:21.497Z,12.12
2018-05-17T20:40:50.034Z,12.10
2018-05-17T20:43:18.569Z,12.09
2018-05-17T20:45:47.130Z,12.12
2018-05-17T20:48:15.669Z,12.10
2018-05-17T20:50:44.213Z,12.11
2018-05-17T20:53:12.998Z,12.12
2018-05-17T20:55:41.541Z,12.22
2018-05-17T20:58:10.090Z,12.18
2018-05-17T21:00:38.696Z,12.12
2018-05-17T21:03:07.173Z,12.18
2018-05-17T21:05:36.668Z,12.14
2018-05-17T21:08:05.217Z,12.19
2018-05-17T21:10:33.944Z,12.17
2018-05-17T21:13:02.482Z,12.20
2018-05-17T21:15:31.053Z,12.26
2018-05-17T21:17:59.668Z,12.23
2018-05-17T21:20:28.218Z,12.31
2018-05-17T21:22:56.756Z,12.27
2018-05-17T21:25:25.578Z,12.27
2018-05-17T21:27:54.121Z,12.34
2018-05-17T21:30:22.656Z,12.33
2018-05-17T21:32:51.193Z,12.27
2018-05-17T21:35:19.741Z,12.26
2018-05-17T21:37:48.281Z,12.34
2018-05-17T21:40:16.867Z,12.37
2018-05-17T21:42:45.405Z,12.33
2018-05-17T21:45:13.940Z,12.29
2018-05-17T21:47:42.514Z,12.27
2018-05-17T21:50:11.062Z,12.26
2018-05-17T21:52:39.593Z,12.29
2018-05-17T21:55:09.765Z,12.33
2018-05-17T21:57:38.440Z,12.34
2018-05-17T22:00:06.969Z,12.27
2018-05-17T22:02:35.513Z,12.27
2018-05-17T22:05:04.044Z,12.25
2018-05-17T22:07:32.644Z,12.22
2018-05-17T22:10:01.182Z,12.21
2018-05-17T22:12:29.641Z,12.22
2018-05-17T22:14:58.181Z,12.15
2018-05-17T22:17:26.730Z,12.10
2018-05-17T22:19:55.267Z,12.06
2018-05-17T22:22:24.005Z,11.99
2018-05-17T22:24:52.595Z,11.89
2018-05-17T22:27:21.135Z,11.73
2018-05-17T22:29:50.250Z,11.69
2018-05-17T22:32:18.767Z,11.67
2018-05-17T22:34:47.309Z,11.51
2018-05-17T22:37:16.067Z,11.43
2018-05-17T22:39:44.616Z,11.27
2018-05-17T22:42:13.126Z,11.22
2018-05-17T22:44:41.720Z,11.18
2018-05-17T22:47:10.257Z,11.07
2018-05-17T22:49:38.809Z,10.98
2018-05-17T22:52:07.488Z,10.91
2018-05-17T22:54:36.043Z,10.88
2018-05-17T22:57:12.488Z,10.80
2018-05-17T22:59:41.131Z,10.74
2018-05-17T23:02:09.662Z,10.80
2018-05-17T23:04:38.240Z,10.76
2018-05-17T23:07:06.762Z,10.75
2018-05-17T23:09:35.304Z,10.70
2018-05-17T23:12:03.846Z,10.70
2018-05-17T23:14:32.602Z,10.64
2018-05-17T23:17:01.145Z,10.74
2018-05-17T23:19:29.684Z,10.73
2018-05-17T23:21:58.327Z,10.70
2018-05-17T23:24:26.865Z,10.66
2018-05-17T23:26:55.394Z,10.71
2018-05-17T23:29:23.937Z,10.72
2018-05-17T23:31:52.476Z,10.76
2018-05-17T23:34:21.017Z,10.80
2018-05-17T23:36:49.549Z,10.82
2018-05-17T23:39:18.113Z,10.87
2018-05-17T23:41:46.673Z,10.94
2018-05-17T23:44:15.209Z,10.97
2018-05-17T23:46:44.072Z,11.02
2018-05-17T23:49:12.613Z,11.06
2018-05-17T23:51:41.141Z,11.12
2018-05-17T23:54:10.154Z,11.14
2018-05-17T23:56:38.697Z,11.18
2018-05-17T23:59:07.256Z,11.20
